Fort Carson, CO

6:46 AM MDT on May 24, 2015 (GMT -0600)
Highway 115 - Red Rock Valley | | Change Station
CLOSE
Current Station
Personal Weather Station
Location: Colorado Springs, CO
Elevation: 6532 ft
Nearby Weather Stations

Elev 6532 ft 38.68 °N, 104.86 °W | Updated 1 minute ago

Clear
Clear
39.5 °F
Feels Like 40 °F
N
0.0
Wind Variable Wind from West
Gusts 0.0 mph

Today
High -- | Low -- °F
--% Chance of Precip.
Yesterday
High -- | Low -- °F
Precip. -- in
5:40 AM 8:11 PM
Waxing Crescent, 39% visible
Pressure 29.90 in
Visibility 10.0 miles
Clouds Clear
Windchill 40 °F
Dew Point 36 °F
Humidity 88%
Rainfall 0.02 in
Snow Depth Not available.
UV 0 out of 12
Pollen 7.30 out of 12
Air Quality Not available.
Flu Activity Sporadic
METAR KFCS 241158Z AUTO 28004KT 10SM CLR 06/05 A2993 RMK AO2 SLP125 70019 T00550052 10105 20046 58001 $

More Conditions Fewer Conditions

Pressure 29.90 in
Visibility 10.0 miles
Clouds Clear
Windchill 40 °F
Dew Point 36 °F
Humidity 88%
Rainfall 0.02 in
Snow Depth Not available.
UV 0 out of 12
Pollen 7.30 out of 12
Air Quality Not available.
Flu Activity Sporadic
METAR KFCS 241158Z AUTO 28004KT 10SM CLR 06/05 A2993 RMK AO2 SLP125 70019 T00550052 10105 20046 58001 $

More Conditions Fewer Conditions

10-Day Weather Forecast

Almanac

Astronomy

May. 24, 2015 Rise Set
Actual Time
Civil Twilight
Nautical Twilight
Astronomical Twilight
Moon
Length of Visible Light
Length of Day
Tomorrow will be .
, % of the Moon is Illuminated

Today's Extremes

State Highs State Lows

Community

WunderPhotos

Upload Photos

1,823,722 photos uploaded!

WunderBlogs® & News

Nearby

Air Quality

  Air Quality AQ Index Pollutant
Not available.

Snow Depth

Station Depth Elevation

Earthquake Activity

City Distance Mag. Time & Date
Minimum magnitude displayed is 2.5.

Coastal Water Temperatures

Place Temperature

Stations

Nearby Weather Stations

Station Location Temp. Windchill Dew Point Humidity Wind Precip. Elev Updated Type